Time;durP1;ratioP1;P1;durP2;ratioP2;P2;SDS_P1;SDS_P2;PMS_P1;PMS_P2;Temp;Humidity;BMP_temperature;BMP_pressure;BME280_temperature;BME280_humidity;BME280_pressure;Samples;Min_cycle;Max_cycle;Signal;HPM_P1;HPM_P2
2021/06/16 00:00:21;;;;;;;13.90;12.70;;;14.10;99.90;;;;;;4987435;28;20058;-83
2021/06/16 00:02:48;;;;;;;13.38;12.07;;;14.20;99.90;;;;;;4989162;28;20238;-81
2021/06/16 00:05:28;;;;;;;14.43;13.30;;;14.10;99.90;;;;;;4967198;28;20058;-81
2021/06/16 00:07:56;;;;;;;16.98;15.30;;;14.20;99.90;;;;;;5003933;28;20488;-82
2021/06/16 00:10:31;;;;;;;14.27;13.27;;;14.10;99.90;;;;;;4986241;28;20104;-81
2021/06/16 00:13:01;;;;;;;14.68;13.38;;;14.10;99.90;;;;;;4971018;28;20053;-81
2021/06/16 00:15:33;;;;;;;14.18;12.55;;;14.10;99.90;;;;;;4971022;28;20466;-83
2021/06/16 00:18:01;;;;;;;16.77;13.02;;;14.10;99.90;;;;;;4970943;28;20046;-82
2021/06/16 00:20:28;;;;;;;14.85;12.85;;;14.20;99.90;;;;;;4970687;28;20046;-83
2021/06/16 00:22:55;;;;;;;14.90;13.73;;;14.10;99.90;;;;;;4969830;28;20354;-83
2021/06/16 00:25:23;;;;;;;13.35;12.30;;;14.00;99.90;;;;;;4970154;28;20104;-83
2021/06/16 00:27:51;;;;;;;14.23;11.98;;;14.00;99.90;;;;;;4987611;28;20043;-82
2021/06/16 00:30:18;;;;;;;16.65;14.05;;;14.00;99.90;;;;;;4985772;28;20420;-83
2021/06/16 00:32:45;;;;;;;14.15;13.07;;;13.90;99.90;;;;;;4974771;28;20096;-83
2021/06/16 00:35:18;;;;;;;14.85;13.45;;;13.80;99.90;;;;;;4969198;28;20150;-82
2021/06/16 00:37:46;;;;;;;15.07;13.30;;;13.70;99.90;;;;;;4987122;28;20159;-83
2021/06/16 00:40:15;;;;;;;13.80;12.55;;;13.80;99.90;;;;;;5002421;28;20133;-83
2021/06/16 00:42:43;;;;;;;15.48;13.98;;;13.70;99.90;;;;;;5003641;28;20058;-82
2021/06/16 00:45:11;;;;;;;14.90;13.20;;;13.80;99.90;;;;;;5003370;28;20054;-83
2021/06/16 00:47:39;;;;;;;14.50;13.25;;;13.70;99.90;;;;;;4970106;28;20042;-82
2021/06/16 00:50:09;;;;;;;15.30;13.82;;;13.50;99.90;;;;;;4970536;28;20262;-82
2021/06/16 00:52:37;;;;;;;13.90;12.75;;;13.50;99.90;;;;;;4985895;28;20060;-82
2021/06/16 00:55:05;;;;;;;14.40;12.63;;;13.50;99.90;;;;;;4985302;28;20496;-82
2021/06/16 00:57:33;;;;;;;14.80;13.35;;;13.50;99.90;;;;;;4986534;28;20389;-82
2021/06/16 01:00:10;;;;;;;14.77;13.43;;;13.40;99.90;;;;;;4985641;28;20110;-82
2021/06/16 01:02:56;;;;;;;13.68;12.55;;;13.40;99.90;;;;;;4973014;28;20103;-82
2021/06/16 01:05:28;;;;;;;14.13;12.85;;;13.30;99.90;;;;;;4970013;28;20141;-82
2021/06/16 01:08:01;;;;;;;13.85;12.52;;;13.20;99.90;;;;;;4954307;28;20141;-82
2021/06/16 01:10:34;;;;;;;17.05;12.23;;;13.20;99.90;;;;;;4998934;28;20038;-81
2021/06/16 01:13:13;;;;;;;13.73;12.40;;;13.10;99.90;;;;;;5012158;28;20043;-82
2021/06/16 01:16:10;;;;;;;14.07;12.73;;;13.00;99.90;;;;;;5010759;28;20222;-82
2021/06/16 01:18:46;;;;;;;13.52;12.07;;;13.00;99.90;;;;;;5010311;28;20070;-81
2021/06/16 01:21:13;;;;;;;;;;;12.90;99.90;;;;;;5000604;28;20451;-82
2021/06/16 01:24:00;;;;;;;13.70;12.43;;;12.80;99.90;;;;;;4985278;28;20037;-82
2021/06/16 01:26:40;;;;;;;13.35;12.00;;;12.80;99.90;;;;;;4985011;28;20058;-82
2021/06/16 01:29:15;;;;;;;15.50;12.82;;;12.80;99.90;;;;;;4969241;28;20544;-82
2021/06/16 01:31:43;;;;;;;13.95;12.85;;;12.80;99.90;;;;;;4983923;28;20313;-82
2021/06/16 01:34:12;;;;;;;13.63;12.48;;;12.80;99.90;;;;;;5011263;28;20108;-82
2021/06/16 01:36:43;;;;;;;13.65;12.25;;;12.80;99.90;;;;;;4992839;28;20096;-83
2021/06/16 01:39:12;;;;;;;14.32;12.43;;;12.80;99.90;;;;;;5003537;28;20050;-83
2021/06/16 01:41:40;;;;;;;14.10;12.57;;;12.80;99.90;;;;;;4970025;28;20057;-82
2021/06/16 01:44:08;;;;;;;16.17;12.82;;;12.70;99.90;;;;;;5004712;28;20046;-83
2021/06/16 01:46:37;;;;;;;13.80;12.30;;;12.70;99.90;;;;;;4985289;28;20077;-83
2021/06/16 01:49:05;;;;;;;15.35;12.23;;;12.70;99.90;;;;;;4969682;28;20091;-82
2021/06/16 01:51:32;;;;;;;13.90;12.43;;;12.70;99.90;;;;;;5002806;28;20057;-82
2021/06/16 01:54:01;;;;;;;14.02;11.32;;;12.70;99.90;;;;;;4971018;28;20050;-83
2021/06/16 01:56:30;;;;;;;12.98;10.88;;;12.60;99.90;;;;;;5002662;28;20157;-82
2021/06/16 01:59:00;;;;;;;14.77;11.65;;;12.50;99.90;;;;;;4970633;28;20054;-83
2021/06/16 02:01:28;;;;;;;12.57;11.63;;;12.50;99.90;;;;;;5004469;28;20174;-83
2021/06/16 02:03:56;;;;;;;12.98;11.77;;;12.50;99.90;;;;;;4974307;28;20366;-84
2021/06/16 02:06:27;;;;;;;13.10;11.88;;;12.40;99.90;;;;;;4995577;28;20115;-82
2021/06/16 02:08:54;;;;;;;12.77;10.80;;;12.30;99.90;;;;;;4992325;28;20278;-82
2021/06/16 02:11:23;;;;;;;13.27;12.07;;;12.50;99.90;;;;;;5008458;28;20037;-82
2021/06/16 02:13:54;;;;;;;15.13;11.30;;;12.50;99.90;;;;;;5009932;28;20065;-82
2021/06/16 02:16:47;;;;;;;12.77;11.48;;;12.50;99.90;;;;;;5009585;28;20049;-82
2021/06/16 02:19:18;;;;;;;13.20;11.45;;;12.30;99.90;;;;;;5009815;28;20054;-82
2021/06/16 02:21:45;;;;;;;15.77;11.95;;;12.40;99.90;;;;;;4993678;28;20042;-82
2021/06/16 02:24:13;;;;;;;12.27;11.15;;;12.40;99.90;;;;;;4991313;28;20039;-82
2021/06/16 02:26:40;;;;;;;17.08;11.55;;;12.30;99.90;;;;;;4982566;28;20054;-83
2021/06/16 02:29:08;;;;;;;13.13;11.82;;;12.30;99.90;;;;;;4978101;28;20054;-83
2021/06/16 02:31:36;;;;;;;12.77;11.57;;;12.20;99.90;;;;;;4971544;28;20078;-81
2021/06/16 02:34:03;;;;;;;17.65;11.60;;;12.10;99.90;;;;;;4986009;28;20054;-80
2021/06/16 02:36:36;;;;;;;16.13;12.48;;;12.10;99.90;;;;;;5011965;28;20042;-81
2021/06/16 02:39:08;;;;;;;14.40;12.50;;;12.10;99.90;;;;;;4967149;28;20240;-81
2021/06/16 02:41:35;;;;;;;17.25;12.13;;;12.00;99.90;;;;;;4949501;28;20093;-81
2021/06/16 02:44:04;;;;;;;14.50;11.50;;;12.20;99.90;;;;;;4951341;28;20344;-81
2021/06/16 02:46:35;;;;;;;16.23;12.77;;;12.10;99.90;;;;;;4949123;28;20154;-82
2021/06/16 02:49:04;;;;;;;12.65;11.27;;;12.00;99.90;;;;;;4964744;28;20141;-82
2021/06/16 02:51:32;;;;;;;14.45;12.27;;;12.00;99.90;;;;;;4980145;28;20287;-82
2021/06/16 02:54:01;;;;;;;14.75;11.85;;;12.10;99.90;;;;;;4968057;28;20050;-82
2021/06/16 02:56:29;;;;;;;16.63;11.80;;;11.90;99.90;;;;;;4968077;28;20050;-81
2021/06/16 02:58:56;;;;;;;13.25;11.40;;;11.80;99.90;;;;;;4984353;28;20050;-82
2021/06/16 03:01:23;;;;;;;12.98;11.65;;;11.70;99.90;;;;;;4967981;28;20054;-82
2021/06/16 03:03:52;;;;;;;12.40;11.18;;;11.70;99.90;;;;;;4990426;28;20042;-81
2021/06/16 03:06:22;;;;;;;12.05;10.95;;;11.80;99.90;;;;;;4969237;28;20491;-82
2021/06/16 03:08:52;;;;;;;14.00;12.65;;;11.80;99.90;;;;;;4982652;28;20471;-81
2021/06/16 03:11:20;;;;;;;12.65;11.50;;;11.80;99.90;;;;;;4984100;28;20089;-81
2021/06/16 03:13:47;;;;;;;14.55;12.45;;;11.80;99.90;;;;;;4984176;28;20058;-81
2021/06/16 03:16:15;;;;;;;13.15;12.05;;;11.70;99.90;;;;;;4982935;28;20138;-81
2021/06/16 03:18:44;;;;;;;13.05;11.90;;;11.60;99.90;;;;;;4987104;28;20271;-82
2021/06/16 03:21:14;;;;;;;14.27;12.77;;;11.60;99.90;;;;;;4970212;28;20058;-82
2021/06/16 03:23:42;;;;;;;19.17;13.32;;;11.80;99.90;;;;;;4987583;28;20157;-82
2021/06/16 03:26:09;;;;;;;14.02;12.48;;;11.90;99.90;;;;;;4970606;28;20440;-81
2021/06/16 03:28:37;;;;;;;19.02;12.55;;;11.70;99.90;;;;;;4986978;28;20535;-81
2021/06/16 03:31:05;;;;;;;12.30;11.05;;;11.70;99.90;;;;;;4987380;28;20070;-83
2021/06/16 03:33:32;;;;;;;11.90;10.57;;;11.80;99.90;;;;;;4989563;28;20050;-83
2021/06/16 03:36:00;;;;;;;16.40;11.80;;;11.80;99.90;;;;;;4969092;28;20066;-82
2021/06/16 03:38:27;;;;;;;13.98;12.38;;;11.80;99.90;;;;;;4971471;28;20061;-82
2021/06/16 03:40:55;;;;;;;12.93;11.73;;;11.80;99.90;;;;;;5019616;28;20117;-81
2021/06/16 03:43:23;;;;;;;18.33;12.65;;;11.80;99.90;;;;;;4971066;28;20060;-81
2021/06/16 03:45:51;;;;;;;17.02;11.70;;;12.00;99.90;;;;;;5002931;28;20097;-82
2021/06/16 03:48:21;;;;;;;14.63;12.32;;;12.20;99.90;;;;;;4986808;28;20062;-82
2021/06/16 03:50:50;;;;;;;16.65;11.45;;;12.30;99.90;;;;;;5001684;28;20149;-83
2021/06/16 03:53:17;;;;;;;15.02;10.65;;;12.30;99.90;;;;;;4987429;28;20069;-82
2021/06/16 03:55:47;;;;;;;13.13;11.68;;;12.40;99.90;;;;;;4986793;28;20046;-83
2021/06/16 03:58:14;;;;;;;14.30;11.73;;;12.30;99.90;;;;;;4976975;28;20038;-82
2021/06/16 04:00:42;;;;;;;12.63;11.43;;;12.30;99.90;;;;;;5001731;28;20567;-82
2021/06/16 04:03:11;;;;;;;12.85;11.48;;;12.40;99.90;;;;;;4988582;28;20062;-81
2021/06/16 04:05:39;;;;;;;12.30;11.18;;;12.40;99.90;;;;;;4977064;28;20133;-81
2021/06/16 04:08:07;;;;;;;13.45;11.38;;;12.40;99.90;;;;;;4987258;28;20064;-81
2021/06/16 04:10:35;;;;;;;13.02;11.57;;;12.40;99.90;;;;;;4969303;28;20310;-82
2021/06/16 04:13:02;;;;;;;14.38;11.85;;;12.50;99.90;;;;;;4986841;28;20493;-82
2021/06/16 04:15:30;;;;;;;12.15;10.95;;;12.60;99.90;;;;;;4970462;28;20042;-82
2021/06/16 04:18:00;;;;;;;12.95;11.48;;;12.60;99.90;;;;;;5003019;28;20468;-81
2021/06/16 04:20:29;;;;;;;13.02;11.75;;;12.70;99.90;;;;;;4985894;28;20084;-81
2021/06/16 04:22:56;;;;;;;11.90;10.98;;;12.80;99.90;;;;;;5000902;28;20060;-82
2021/06/16 04:25:24;;;;;;;17.63;11.38;;;12.80;99.90;;;;;;5002208;28;20054;-81
2021/06/16 04:27:52;;;;;;;15.48;11.52;;;12.90;99.90;;;;;;4982237;28;20042;-81
2021/06/16 04:30:22;;;;;;;13.15;11.75;;;13.10;99.90;;;;;;4986760;28;20049;-81
2021/06/16 04:32:49;;;;;;;13.52;12.35;;;13.40;99.90;;;;;;4958773;28;20301;-82
2021/06/16 04:35:17;;;;;;;17.33;11.35;;;13.70;99.90;;;;;;4969234;28;20054;-82
2021/06/16 04:37:44;;;;;;;16.23;12.05;;;13.90;99.90;;;;;;4987934;28;20046;-82
2021/06/16 04:40:12;;;;;;;12.85;11.68;;;14.10;99.90;;;;;;5004445;28;20078;-82
2021/06/16 04:42:40;;;;;;;13.30;12.30;;;14.50;99.90;;;;;;4978412;28;20393;-81
2021/06/16 04:45:08;;;;;;;13.55;12.38;;;14.90;99.90;;;;;;4976755;28;20148;-83
2021/06/16 04:47:35;;;;;;;15.52;12.73;;;15.00;99.90;;;;;;5001189;28;20043;-82
2021/06/16 04:50:10;;;;;;;13.48;12.30;;;15.30;99.90;;;;;;4968608;28;20141;-82
2021/06/16 04:52:38;;;;;;;14.45;12.98;;;15.60;99.90;;;;;;4953141;28;20078;-81
2021/06/16 04:55:07;;;;;;;12.32;11.30;;;16.00;99.90;;;;;;4969380;28;20055;-83
2021/06/16 04:57:34;;;;;;;12.98;12.15;;;16.30;99.90;;;;;;4953677;28;20424;-81
2021/06/16 05:00:01;;;;;;;15.13;13.15;;;16.40;99.90;;;;;;4952816;28;20092;-82
2021/06/16 05:02:28;;;;;;;18.05;12.85;;;16.50;99.90;;;;;;4970886;28;20058;-82
2021/06/16 05:04:55;;;;;;;12.52;11.35;;;16.70;99.90;;;;;;4986385;28;21010;-82
2021/06/16 05:07:22;;;;;;;13.02;11.88;;;16.70;99.90;;;;;;4965790;28;20508;-81
2021/06/16 05:09:49;;;;;;;11.10;10.35;;;16.70;99.90;;;;;;4968762;28;20500;-82
2021/06/16 05:12:16;;;;;;;12.70;11.50;;;16.80;99.90;;;;;;4953206;28;20101;-82
2021/06/16 05:14:43;;;;;;;12.82;11.73;;;17.00;99.90;;;;;;4981492;28;20054;-81
2021/06/16 05:17:10;;;;;;;12.48;11.30;;;17.30;99.90;;;;;;4969180;28;20541;-82
2021/06/16 05:19:37;;;;;;;13.93;11.00;;;17.30;99.90;;;;;;4952550;28;20077;-81
2021/06/16 05:22:13;;;;;;;12.85;11.88;;;17.30;99.90;;;;;;4952708;28;20046;-82
2021/06/16 05:24:41;;;;;;;12.02;10.98;;;17.60;99.90;;;;;;4984801;28;20038;-81
2021/06/16 05:27:09;;;;;;;13.35;11.00;;;17.80;99.90;;;;;;4978040;28;20050;-82
2021/06/16 05:29:36;;;;;;;11.73;10.75;;;17.90;99.90;;;;;;4955099;28;20077;-82
2021/06/16 05:32:03;;;;;;;12.52;11.27;;;18.10;99.90;;;;;;4934998;28;20532;-83
2021/06/16 05:34:30;;;;;;;13.13;11.95;;;18.20;99.90;;;;;;4956092;28;20257;-83
2021/06/16 05:36:57;;;;;;;13.23;12.02;;;17.90;99.90;;;;;;4996741;28;20050;-83
2021/06/16 05:39:24;;;;;;;11.45;10.50;;;18.10;99.90;;;;;;4973500;28;20050;-81
2021/06/16 05:41:52;;;;;;;12.15;10.68;;;18.00;99.90;;;;;;4969358;28;20137;-82
2021/06/16 05:44:19;;;;;;;13.13;11.10;;;17.90;99.90;;;;;;4969620;28;20129;-82
2021/06/16 05:46:46;;;;;;;12.18;10.93;;;18.50;99.90;;;;;;4969926;28;20050;-82
2021/06/16 05:49:13;;;;;;;12.57;11.45;;;18.60;99.90;;;;;;4968093;28;20141;-81
2021/06/16 05:51:40;;;;;;;13.98;12.60;;;19.20;99.90;;;;;;4968586;28;20265;-83
2021/06/16 05:54:10;;;;;;;13.32;12.35;;;19.50;99.90;;;;;;4937467;28;20042;-81
2021/06/16 05:56:38;;;;;;;12.98;12.05;;;19.70;99.90;;;;;;4953063;28;20187;-83
2021/06/16 05:59:06;;;;;;;13.00;11.75;;;19.60;99.90;;;;;;4946286;28;20038;-83
2021/06/16 06:01:35;;;;;;;13.35;12.18;;;19.40;99.90;;;;;;4986133;28;20077;-82
2021/06/16 06:04:03;;;;;;;12.80;11.80;;;19.40;99.90;;;;;;4977306;28;20504;-82
2021/06/16 06:06:30;;;;;;;13.00;11.90;;;19.40;99.90;;;;;;4977730;28;20460;-82
2021/06/16 06:08:57;;;;;;;14.10;12.63;;;19.30;99.90;;;;;;4984349;28;20127;-82
2021/06/16 06:11:24;;;;;;;13.80;12.55;;;19.70;99.90;;;;;;4952092;28;20081;-82
2021/06/16 06:13:52;;;;;;;13.85;12.75;;;19.60;99.90;;;;;;4953206;28;20549;-82
2021/06/16 06:16:19;;;;;;;13.20;12.27;;;19.70;99.90;;;;;;4959358;28;20058;-82
2021/06/16 06:18:46;;;;;;;12.93;11.73;;;19.90;99.90;;;;;;4985950;28;20459;-81
2021/06/16 06:21:13;;;;;;;12.73;11.85;;;20.20;99.90;;;;;;4997989;28;20042;-83
2021/06/16 06:23:39;;;;;;;12.07;11.23;;;20.70;99.90;;;;;;4994073;28;20042;-82
2021/06/16 06:26:06;;;;;;;13.52;12.27;;;21.40;99.90;;;;;;5009567;28;20034;-82
2021/06/16 06:28:33;;;;;;;14.55;12.00;;;21.60;99.90;;;;;;5009789;28;20046;-82
2021/06/16 06:31:00;;;;;;;13.73;12.65;;;21.70;99.90;;;;;;4993644;28;20097;-81
2021/06/16 06:33:27;;;;;;;14.35;13.02;;;21.60;99.90;;;;;;4988236;28;20120;-81
2021/06/16 06:35:54;;;;;;;14.52;12.70;;;21.20;99.90;;;;;;4967299;28;20096;-82
2021/06/16 06:38:21;;;;;;;13.90;12.88;;;21.40;99.90;;;;;;4984383;28;20050;-81
2021/06/16 06:40:49;;;;;;;18.35;13.18;;;21.70;99.90;;;;;;4967444;28;20046;-82
2021/06/16 06:43:17;;;;;;;13.57;12.45;;;22.10;99.90;;;;;;4968640;28;20571;-82
2021/06/16 06:45:45;;;;;;;16.10;12.65;;;22.20;99.90;;;;;;4999522;28;20053;-82
2021/06/16 06:48:12;;;;;;;19.25;12.77;;;22.20;99.90;;;;;;5001026;28;20076;-82
2021/06/16 06:50:39;;;;;;;13.35;12.55;;;22.40;99.90;;;;;;4962428;28;20198;-82
2021/06/16 06:53:05;;;;;;;13.55;12.35;;;22.20;99.90;;;;;;4971034;28;20046;-82
2021/06/16 06:55:33;;;;;;;15.77;14.15;;;22.60;99.90;;;;;;4970122;28;20420;-83
2021/06/16 06:58:00;;;;;;;15.30;14.00;;;22.90;99.90;;;;;;4956762;28;20077;-83
2021/06/16 07:00:26;;;;;;;13.93;12.88;;;22.40;99.90;;;;;;4986414;28;20142;-82
2021/06/16 07:02:55;;;;;;;15.43;14.07;;;22.30;99.90;;;;;;4970671;28;20050;-82
2021/06/16 07:05:24;;;;;;;15.25;13.95;;;22.10;99.90;;;;;;4987596;28;20486;-82
2021/06/16 07:07:51;;;;;;;14.73;13.50;;;21.90;99.90;;;;;;4971896;28;20301;-82
2021/06/16 07:10:18;;;;;;;15.10;13.80;;;21.60;99.90;;;;;;4971237;28;20097;-83
2021/06/16 07:12:45;;;;;;;15.65;14.48;;;21.50;99.90;;;;;;4987633;28;20096;-83
2021/06/16 07:15:13;;;;;;;15.45;14.13;;;21.30;99.90;;;;;;4987667;28;20426;-83
2021/06/16 07:17:41;;;;;;;16.35;14.98;;;21.40;99.90;;;;;;4987985;28;20038;-82
2021/06/16 07:20:08;;;;;;;15.77;14.40;;;21.80;99.90;;;;;;4988519;28;20086;-83
2021/06/16 07:22:36;;;;;;;15.50;14.20;;;21.90;99.90;;;;;;4982684;28;20051;-81
2021/06/16 07:25:04;;;;;;;15.63;14.43;;;22.50;99.90;;;;;;4952066;28;20181;-82
2021/06/16 07:27:31;;;;;;;16.00;14.90;;;22.70;99.90;;;;;;4958603;28;20050;-83
2021/06/16 07:29:58;;;;;;;16.42;15.32;;;22.40;99.90;;;;;;4987032;28;20042;-81
2021/06/16 07:32:25;;;;;;;17.50;15.88;;;22.00;99.90;;;;;;4974353;28;20046;-80
2021/06/16 07:34:52;;;;;;;25.30;16.10;;;22.00;99.90;;;;;;5007079;28;20566;-83
2021/06/16 07:37:19;;;;;;;17.30;16.00;;;22.10;99.90;;;;;;5023148;28;20594;-84
2021/06/16 07:39:46;;;;;;;17.67;16.38;;;22.20;99.90;;;;;;4974770;28;20057;-82
2021/06/16 07:42:13;;;;;;;17.30;15.98;;;22.20;99.90;;;;;;5004419;28;20058;-82
2021/06/16 07:44:40;;;;;;;16.80;15.50;;;22.30;99.90;;;;;;4989739;28;20050;-84
2021/06/16 07:47:07;;;;;;;17.77;16.08;;;22.30;99.90;;;;;;5004703;28;20303;-83
2021/06/16 07:49:34;;;;;;;16.77;15.48;;;22.30;99.90;;;;;;4972583;28;20065;-83
2021/06/16 07:52:02;;;;;;;18.08;16.38;;;22.40;99.90;;;;;;4973893;28;20053;-83
2021/06/16 07:54:29;;;;;;;17.63;16.05;;;22.80;99.90;;;;;;4989712;28;20138;-83
2021/06/16 07:56:56;;;;;;;23.67;17.48;;;22.90;99.90;;;;;;5002270;28;20302;-83
2021/06/16 07:59:23;;;;;;;17.92;16.38;;;23.20;99.90;;;;;;4954340;28;20150;-84
2021/06/16 08:01:50;;;;;;;28.23;16.48;;;23.40;99.90;;;;;;4985918;28;20121;-83
2021/06/16 08:04:21;;;;;;;17.98;16.35;;;23.10;99.90;;;;;;4985703;28;20447;-82
2021/06/16 08:06:48;;;;;;;17.52;15.80;;;22.80;99.90;;;;;;4953779;28;20551;-83
2021/06/16 08:09:15;;;;;;;17.92;16.45;;;23.10;99.90;;;;;;4987070;28;20141;-81
2021/06/16 08:11:42;;;;;;;17.08;15.57;;;23.20;99.90;;;;;;4971283;28;20335;-83
2021/06/16 08:14:09;;;;;;;17.63;16.23;;;22.70;99.90;;;;;;5015220;28;20145;-81
2021/06/16 08:16:36;;;;;;;17.80;16.50;;;22.30;99.90;;;;;;5013405;28;20043;-82
2021/06/16 08:19:03;;;;;;;17.95;15.98;;;22.40;99.90;;;;;;4973326;28;20047;-82
2021/06/16 08:21:30;;;;;;;16.65;15.25;;;22.40;99.90;;;;;;4987134;28;20062;-83
2021/06/16 08:23:57;;;;;;;16.70;15.27;;;22.90;99.90;;;;;;4967802;28;20062;-82
2021/06/16 08:26:24;;;;;;;18.83;17.23;;;23.40;99.90;;;;;;4983998;28;20050;-83
2021/06/16 08:28:51;;;;;;;17.45;16.17;;;23.30;99.90;;;;;;4970571;28;20042;-83
2021/06/16 08:31:18;;;;;;;16.23;14.77;;;23.30;99.90;;;;;;4969886;28;20050;-83
2021/06/16 08:33:45;;;;;;;17.02;15.45;;;23.30;99.90;;;;;;4986606;28;20075;-84
2021/06/16 08:36:12;;;;;;;19.02;17.63;;;23.60;99.90;;;;;;4989618;28;20066;-83
2021/06/16 08:38:39;;;;;;;17.33;15.77;;;23.40;99.90;;;;;;4980562;28;20038;-83
2021/06/16 08:41:08;;;;;;;16.85;15.27;;;23.40;99.90;;;;;;4970001;28;20047;-83
2021/06/16 08:43:42;;;;;;;18.00;16.33;;;23.50;99.90;;;;;;4986817;28;20046;-83
2021/06/16 08:46:15;;;;;;;19.27;17.52;;;23.80;99.90;;;;;;4986333;28;20061;-83
2021/06/16 08:48:43;;;;;;;19.60;17.75;;;24.10;99.90;;;;;;5001394;28;20046;-84
2021/06/16 08:51:13;;;;;;;18.73;17.25;;;24.20;99.90;;;;;;4985618;28;20584;-83
2021/06/16 08:53:40;;;;;;;17.92;16.63;;;24.00;99.90;;;;;;4986830;28;20050;-84
2021/06/16 08:56:07;;;;;;;18.13;16.75;;;24.30;99.90;;;;;;4985277;28;20057;-83
2021/06/16 08:58:38;;;;;;;19.05;17.70;;;24.40;99.90;;;;;;4987133;28;20315;-83
2021/06/16 09:01:08;;;;;;;19.35;17.67;;;24.00;99.90;;;;;;4968808;28;20046;-83
2021/06/16 09:03:36;;;;;;;19.35;17.52;;;24.10;99.90;;;;;;4985516;28;20050;-83
2021/06/16 09:06:06;;;;;;;21.65;18.10;;;24.30;99.90;;;;;;4985378;28;20133;-83
2021/06/16 09:08:49;;;;;;;18.65;17.15;;;24.40;99.90;;;;;;5000861;28;20078;-84
2021/06/16 09:11:16;;;;;;;18.27;16.88;;;24.20;99.90;;;;;;4985043;28;20069;-83
2021/06/16 09:13:43;;;;;;;19.10;17.48;;;24.40;99.90;;;;;;4969010;28;20079;-83
2021/06/16 09:16:28;;;;;;;21.10;19.10;;;24.80;99.90;;;;;;4983829;28;20457;-84
2021/06/16 09:18:58;;;;;;;19.42;17.92;;;25.00;99.90;;;;;;4969045;28;20141;-84
2021/06/16 09:21:37;;;;;;;20.20;18.35;;;25.50;99.90;;;;;;4967775;28;20070;-84
2021/06/16 09:24:08;;;;;;;19.92;18.05;;;25.80;99.90;;;;;;4980714;28;20062;-84
2021/06/16 09:26:37;;;;;;;19.80;17.95;;;26.20;99.90;;;;;;5002253;28;20058;-84
2021/06/16 09:29:05;;;;;;;21.52;19.48;;;26.30;99.90;;;;;;4986287;28;20042;-84
2021/06/16 09:31:41;;;;;;;22.05;20.17;;;26.00;99.90;;;;;;4986759;28;20341;-84
2021/06/16 09:34:17;;;;;;;22.33;20.25;;;25.60;99.90;;;;;;5019718;28;20082;-85
2021/06/16 09:36:48;;;;;;;21.42;19.45;;;25.00;99.90;;;;;;4989502;28;20046;-85
2021/06/16 09:39:20;;;;;;;22.80;20.92;;;25.10;99.90;;;;;;5008761;28;20051;-84
2021/06/16 09:41:57;;;;;;;21.27;19.35;;;25.10;99.90;;;;;;4987723;28;20074;-85
2021/06/16 09:44:50;;;;;;;20.05;18.35;;;25.00;99.90;;;;;;4985899;28;20196;-83
2021/06/16 09:47:23;;;;;;;20.95;19.35;;;25.40;99.90;;;;;;4985653;28;20054;-84
2021/06/16 09:49:59;;;;;;;20.45;18.70;;;25.60;99.90;;;;;;4969476;28;20055;-83
2021/06/16 09:52:34;;;;;;;19.88;18.25;;;25.70;99.90;;;;;;4967385;28;20070;-83
2021/06/16 09:55:05;;;;;;;19.52;18.13;;;25.70;99.90;;;;;;4969591;28;20097;-84
2021/06/16 09:57:34;;;;;;;20.17;18.55;;;25.60;99.90;;;;;;4949597;28;20117;-84
2021/06/16 10:00:09;;;;;;;21.15;19.40;;;25.90;99.90;;;;;;4964857;28;20043;-83
2021/06/16 10:02:41;;;;;;;20.77;19.35;;;26.20;99.90;;;;;;4965720;28;20067;-85
2021/06/16 10:05:11;;;;;;;21.33;19.55;;;26.00;99.90;;;;;;4948896;28;20061;-84
2021/06/16 10:07:39;;;;;;;21.55;19.80;;;25.90;99.90;;;;;;4966220;28;20292;-84
2021/06/16 10:10:08;;;;;;;22.15;20.10;;;26.50;99.90;;;;;;4951718;28;20137;-84
2021/06/16 10:12:43;;;;;;;21.75;20.02;;;26.40;99.90;;;;;;4932297;28;20047;-84
2021/06/16 10:15:14;;;;;;;21.85;19.60;;;26.50;99.90;;;;;;4949472;28;20047;-83
2021/06/16 10:17:43;;;;;;;22.15;19.88;;;26.80;99.90;;;;;;4950090;28;20521;-84
2021/06/16 10:20:13;;;;;;;21.10;19.33;;;26.60;99.90;;;;;;4949434;28;20567;-84
2021/06/16 10:22:40;;;;;;;22.08;20.30;;;26.60;99.90;;;;;;4948786;28;20157;-85
2021/06/16 10:25:08;;;;;;;20.63;18.42;;;26.80;99.90;;;;;;4968099;28;20050;-84
2021/06/16 10:27:45;;;;;;;27.33;20.42;;;27.30;99.90;;;;;;4950172;28;20073;-83
2021/06/16 10:30:13;;;;;;;25.88;19.50;;;27.30;99.90;;;;;;4960025;28;20046;-84
2021/06/16 10:32:44;;;;;;;19.95;18.35;;;27.10;99.90;;;;;;4949487;28;20046;-83
2021/06/16 10:35:40;;;;;;;21.63;19.70;;;27.00;99.90;;;;;;4948073;28;20051;-84
2021/06/16 10:38:17;;;;;;;19.63;18.08;;;27.00;99.90;;;;;;4919573;28;20800;-85
2021/06/16 10:40:48;;;;;;;20.85;19.15;;;27.00;99.90;;;;;;4964623;28;20453;-83
2021/06/16 10:43:31;;;;;;;21.73;19.88;;;27.50;99.90;;;;;;4984968;28;20085;-84
2021/06/16 10:46:02;;;;;;;19.40;17.90;;;27.50;99.90;;;;;;4968617;28;20050;-82
2021/06/16 10:48:53;;;;;;;20.73;19.20;;;27.60;99.90;;;;;;4984305;28;20050;-84
2021/06/16 10:51:34;;;;;;;31.58;28.13;;;27.70;99.90;;;;;;4961994;28;20049;-83
2021/06/16 10:54:19;;;;;;;19.92;18.33;;;27.80;99.90;;;;;;4952915;28;20468;-83
2021/06/16 10:56:54;;;;;;;20.60;18.77;;;27.80;99.90;;;;;;4968808;28;20085;-84
2021/06/16 10:59:42;;;;;;;21.45;19.58;;;28.30;99.90;;;;;;4969393;28;20046;-83
2021/06/16 11:02:11;;;;;;;21.25;19.15;;;28.20;99.90;;;;;;4973804;28;20109;-84
2021/06/16 11:04:38;;;;;;;18.45;17.20;;;27.30;99.90;;;;;;4980582;28;20136;-83
2021/06/16 11:07:30;;;;;;;19.23;18.00;;;27.40;99.90;;;;;;4972485;28;20347;-86
2021/06/16 11:10:06;;;;;;;19.83;18.05;;;27.20;99.90;;;;;;4970276;28;20113;-83
2021/06/16 11:12:36;;;;;;;20.20;18.80;;;26.90;99.90;;;;;;4953314;28;20520;-84
2021/06/16 11:15:08;;;;;;;20.98;19.27;;;26.90;99.90;;;;;;4951977;28;20058;-84
2021/06/16 11:17:36;;;;;;;20.20;18.15;;;27.10;99.90;;;;;;4968984;28;20653;-84
2021/06/16 11:20:02;;;;;;;21.27;19.17;;;27.50;99.90;;;;;;4969683;28;20046;-85
2021/06/16 11:22:29;;;;;;;19.83;18.42;;;27.30;99.90;;;;;;4950537;28;20060;-82
2021/06/16 11:25:18;;;;;;;19.92;18.13;;;27.20;99.90;;;;;;4956331;28;20407;-84
2021/06/16 11:27:54;;;;;;;20.02;18.48;;;27.30;99.90;;;;;;4992812;28;20030;-84
2021/06/16 11:30:42;;;;;;;20.23;18.58;;;27.30;99.90;;;;;;4993116;28;20054;-85
2021/06/16 11:33:12;;;;;;;20.40;18.80;;;27.40;99.90;;;;;;4998172;28;20054;-84
2021/06/16 11:35:41;;;;;;;19.80;18.35;;;27.30;99.90;;;;;;4979334;28;20143;-82
2021/06/16 11:38:29;;;;;;;19.38;17.95;;;27.10;99.90;;;;;;4966490;28;20054;-83
2021/06/16 11:41:00;;;;;;;19.90;18.08;;;27.40;99.90;;;;;;4971393;28;20054;-85
2021/06/16 11:43:37;;;;;;;19.92;18.17;;;27.70;99.90;;;;;;4986651;28;20145;-83
2021/06/16 11:46:11;;;;;;;19.55;17.80;;;27.90;99.90;;;;;;4986979;28;20046;-83
2021/06/16 11:48:39;;;;;;;21.02;19.13;;;28.70;99.90;;;;;;4971618;28;20057;-83
2021/06/16 11:51:08;;;;;;;20.35;18.52;;;28.70;99.90;;;;;;4970637;28;20039;-86
2021/06/16 11:53:37;;;;;;;19.83;17.70;;;28.10;99.90;;;;;;4973974;28;20050;-83
2021/06/16 11:56:06;;;;;;;19.48;18.17;;;28.30;99.90;;;;;;4969502;28;20042;-83
2021/06/16 11:58:36;;;;;;;21.15;19.10;;;28.00;99.90;;;;;;4954287;28;20092;-83
2021/06/16 12:01:24;;;;;;;19.52;18.05;;;27.90;99.90;;;;;;4965870;28;20245;-84
2021/06/16 12:03:59;;;;;;;20.60;17.92;;;28.10;99.90;;;;;;4970012;28;20461;-83
2021/06/16 12:06:26;;;;;;;18.23;16.52;;;28.50;99.90;;;;;;4969863;28;20055;-82
2021/06/16 12:09:01;;;;;;;18.30;17.08;;;28.80;99.90;;;;;;4952176;28;20054;-86
2021/06/16 12:11:35;;;;;;;19.48;17.88;;;29.00;99.90;;;;;;4986433;28;20501;-84
2021/06/16 12:14:11;;;;;;;19.25;17.70;;;29.20;99.90;;;;;;4970722;28;20054;-85
2021/06/16 12:16:40;;;;;;;19.15;17.70;;;29.00;99.90;;;;;;4954134;28;20551;-83
2021/06/16 12:19:19;;;;;;;18.83;17.10;;;28.70;99.90;;;;;;4969685;28;20527;-85
2021/06/16 12:22:10;;;;;;;18.98;17.63;;;27.80;99.90;;;;;;4971691;28;20148;-84
2021/06/16 12:24:40;;;;;;;19.10;17.67;;;28.20;99.90;;;;;;4982110;28;20069;-82
2021/06/16 12:27:10;;;;;;;20.13;18.27;;;27.90;99.90;;;;;;4969239;28;20059;-82
2021/06/16 12:29:52;;;;;;;19.83;18.23;;;27.90;99.90;;;;;;4967831;28;20081;-84
2021/06/16 12:32:34;;;;;;;18.88;17.33;;;28.40;99.90;;;;;;4970066;28;20145;-85
2021/06/16 12:35:28;;;;;;;18.35;16.88;;;28.70;99.90;;;;;;4970621;28;20052;-84
2021/06/16 12:37:56;;;;;;;19.42;17.98;;;29.00;99.90;;;;;;4970612;28;20046;-84
2021/06/16 12:40:35;;;;;;;17.67;16.48;;;29.10;99.90;;;;;;4969552;28;20142;-86
2021/06/16 12:43:04;;;;;;;18.77;17.35;;;29.00;99.90;;;;;;4970481;28;20085;-84